sensor_id;sensor_type;location;lat;lon;timestamp;P1;durP1;ratioP1;P2;durP2;ratioP2
12271;SDS011;6198;51.446;6.698;2024-03-23T00:53:00;26.13;;;9.03;;
12271;SDS011;6198;51.446;6.698;2024-03-23T00:55:26;25.07;;;7.93;;
12271;SDS011;6198;51.446;6.698;2024-03-23T00:57:52;33.10;;;11.77;;
12271;SDS011;6198;51.446;6.698;2024-03-23T01:00:18;14.23;;;5.33;;
12271;SDS011;6198;51.446;6.698;2024-03-23T01:02:44;19.03;;;6.23;;
12271;SDS011;6198;51.446;6.698;2024-03-23T01:05:10;27.70;;;6.80;;
12271;SDS011;6198;51.446;6.698;2024-03-23T01:07:36;15.43;;;4.87;;
12271;SDS011;6198;51.446;6.698;2024-03-23T01:10:03;16.60;;;7.30;;
12271;SDS011;6198;51.446;6.698;2024-03-23T01:12:29;14.50;;;5.50;;
12271;SDS011;6198;51.446;6.698;2024-03-23T01:14:55;18.80;;;5.57;;
12271;SDS011;6198;51.446;6.698;2024-03-23T01:17:21;17.97;;;5.53;;
12271;SDS011;6198;51.446;6.698;2024-03-23T01:19:47;14.83;;;5.03;;
12271;SDS011;6198;51.446;6.698;2024-03-23T01:22:12;16.57;;;4.87;;
12271;SDS011;6198;51.446;6.698;2024-03-23T01:24:38;12.43;;;3.87;;
12271;SDS011;6198;51.446;6.698;2024-03-23T01:27:04;11.63;;;4.27;;
12271;SDS011;6198;51.446;6.698;2024-03-23T01:29:30;12.93;;;4.57;;
12271;SDS011;6198;51.446;6.698;2024-03-23T01:31:56;14.63;;;4.27;;
12271;SDS011;6198;51.446;6.698;2024-03-23T01:34:22;7.60;;;3.90;;
12271;SDS011;6198;51.446;6.698;2024-03-23T01:36:49;14.67;;;3.90;;
12271;SDS011;6198;51.446;6.698;2024-03-23T01:39:15;16.07;;;3.53;;
12271;SDS011;6198;51.446;6.698;2024-03-23T01:41:41;13.00;;;3.23;;
12271;SDS011;6198;51.446;6.698;2024-03-23T01:44:08;15.17;;;3.50;;
12271;SDS011;6198;51.446;6.698;2024-03-23T01:46:37;11.87;;;3.53;;
12271;SDS011;6198;51.446;6.698;2024-03-23T01:49:06;7.73;;;2.67;;
12271;SDS011;6198;51.446;6.698;2024-03-23T01:51:33;12.33;;;3.23;;
12271;SDS011;6198;51.446;6.698;2024-03-23T01:53:59;12.20;;;2.80;;
12271;SDS011;6198;51.446;6.698;2024-03-23T01:56:27;13.43;;;3.70;;
12271;SDS011;6198;51.446;6.698;2024-03-23T01:58:54;8.30;;;2.60;;
12271;SDS011;6198;51.446;6.698;2024-03-23T02:01:19;7.87;;;3.40;;
12271;SDS011;6198;51.446;6.698;2024-03-23T02:03:46;15.03;;;3.27;;
12271;SDS011;6198;51.446;6.698;2024-03-23T02:06:11;10.90;;;3.05;;
12271;SDS011;6198;51.446;6.698;2024-03-23T02:08:37;8.80;;;2.60;;
12271;SDS011;6198;51.446;6.698;2024-03-23T02:11:04;14.17;;;3.27;;
12271;SDS011;6198;51.446;6.698;2024-03-23T02:13:30;5.23;;;2.30;;
12271;SDS011;6198;51.446;6.698;2024-03-23T02:15:56;14.83;;;3.07;;
12271;SDS011;6198;51.446;6.698;2024-03-23T02:18:23;13.73;;;2.60;;
12271;SDS011;6198;51.446;6.698;2024-03-23T02:20:49;9.53;;;2.83;;
12271;SDS011;6198;51.446;6.698;2024-03-23T02:23:15;10.53;;;2.87;;
12271;SDS011;6198;51.446;6.698;2024-03-23T02:25:42;16.20;;;2.83;;
12271;SDS011;6198;51.446;6.698;2024-03-23T02:28:08;9.77;;;2.37;;
12271;SDS011;6198;51.446;6.698;2024-03-23T02:30:34;11.90;;;2.90;;
12271;SDS011;6198;51.446;6.698;2024-03-23T02:33:00;11.90;;;3.00;;
12271;SDS011;6198;51.446;6.698;2024-03-23T02:35:26;8.80;;;2.77;;
12271;SDS011;6198;51.446;6.698;2024-03-23T02:37:52;9.33;;;3.00;;
12271;SDS011;6198;51.446;6.698;2024-03-23T02:40:19;11.33;;;3.10;;
12271;SDS011;6198;51.446;6.698;2024-03-23T02:42:45;8.73;;;3.00;;
12271;SDS011;6198;51.446;6.698;2024-03-23T02:45:11;13.57;;;4.27;;
12271;SDS011;6198;51.446;6.698;2024-03-23T02:47:37;11.43;;;3.13;;
12271;SDS011;6198;51.446;6.698;2024-03-23T02:50:03;14.10;;;3.53;;
12271;SDS011;6198;51.446;6.698;2024-03-23T02:52:30;12.17;;;3.27;;
12271;SDS011;6198;51.446;6.698;2024-03-23T02:54:56;13.30;;;3.43;;
12271;SDS011;6198;51.446;6.698;2024-03-23T02:57:22;13.87;;;3.23;;
12271;SDS011;6198;51.446;6.698;2024-03-23T02:59:48;10.70;;;3.07;;
12271;SDS011;6198;51.446;6.698;2024-03-23T03:02:15;6.63;;;3.07;;
12271;SDS011;6198;51.446;6.698;2024-03-23T03:04:41;11.33;;;3.00;;
12271;SDS011;6198;51.446;6.698;2024-03-23T03:07:07;12.27;;;3.80;;
12271;SDS011;6198;51.446;6.698;2024-03-23T03:09:33;5.37;;;3.20;;
12271;SDS011;6198;51.446;6.698;2024-03-23T03:12:00;12.83;;;3.20;;
12271;SDS011;6198;51.446;6.698;2024-03-23T03:14:26;9.30;;;2.93;;
12271;SDS011;6198;51.446;6.698;2024-03-23T03:16:53;9.97;;;2.93;;
12271;SDS011;6198;51.446;6.698;2024-03-23T03:19:19;11.47;;;3.67;;
12271;SDS011;6198;51.446;6.698;2024-03-23T03:21:45;9.67;;;2.97;;
12271;SDS011;6198;51.446;6.698;2024-03-23T03:24:12;12.70;;;3.60;;
12271;SDS011;6198;51.446;6.698;2024-03-23T03:26:38;15.83;;;3.70;;
12271;SDS011;6198;51.446;6.698;2024-03-23T03:29:04;8.83;;;2.97;;
12271;SDS011;6198;51.446;6.698;2024-03-23T03:31:30;8.27;;;2.97;;
12271;SDS011;6198;51.446;6.698;2024-03-23T03:33:56;14.40;;;3.65;;
12271;SDS011;6198;51.446;6.698;2024-03-23T03:36:22;11.93;;;3.00;;
12271;SDS011;6198;51.446;6.698;2024-03-23T03:38:48;16.80;;;3.43;;
12271;SDS011;6198;51.446;6.698;2024-03-23T03:41:14;10.80;;;3.00;;
12271;SDS011;6198;51.446;6.698;2024-03-23T03:43:40;12.40;;;3.47;;
12271;SDS011;6198;51.446;6.698;2024-03-23T03:46:06;14.40;;;3.70;;
12271;SDS011;6198;51.446;6.698;2024-03-23T03:48:35;11.90;;;2.80;;
12271;SDS011;6198;51.446;6.698;2024-03-23T03:51:02;8.90;;;3.57;;
12271;SDS011;6198;51.446;6.698;2024-03-23T03:53:28;12.93;;;3.27;;
12271;SDS011;6198;51.446;6.698;2024-03-23T03:55:54;15.00;;;4.10;;
12271;SDS011;6198;51.446;6.698;2024-03-23T03:58:19;9.33;;;3.80;;
12271;SDS011;6198;51.446;6.698;2024-03-23T04:00:45;14.03;;;3.43;;
12271;SDS011;6198;51.446;6.698;2024-03-23T04:03:11;11.47;;;3.50;;
12271;SDS011;6198;51.446;6.698;2024-03-23T04:05:37;13.93;;;3.83;;
12271;SDS011;6198;51.446;6.698;2024-03-23T04:08:04;12.97;;;3.20;;
12271;SDS011;6198;51.446;6.698;2024-03-23T04:10:30;11.13;;;3.87;;
12271;SDS011;6198;51.446;6.698;2024-03-23T04:12:56;12.73;;;4.00;;
12271;SDS011;6198;51.446;6.698;2024-03-23T04:15:22;8.87;;;4.00;;
12271;SDS011;6198;51.446;6.698;2024-03-23T04:17:48;13.53;;;3.57;;
12271;SDS011;6198;51.446;6.698;2024-03-23T04:20:14;15.33;;;4.63;;
12271;SDS011;6198;51.446;6.698;2024-03-23T04:22:42;17.37;;;5.53;;
12271;SDS011;6198;51.446;6.698;2024-03-23T04:25:08;17.33;;;4.73;;
12271;SDS011;6198;51.446;6.698;2024-03-23T04:27:35;13.77;;;4.97;;
12271;SDS011;6198;51.446;6.698;2024-03-23T04:30:02;17.43;;;5.60;;
12271;SDS011;6198;51.446;6.698;2024-03-23T04:32:29;16.00;;;6.45;;
12271;SDS011;6198;51.446;6.698;2024-03-23T04:34:56;18.00;;;5.93;;
12271;SDS011;6198;51.446;6.698;2024-03-23T04:37:22;19.20;;;5.90;;
12271;SDS011;6198;51.446;6.698;2024-03-23T04:39:48;20.50;;;6.73;;
12271;SDS011;6198;51.446;6.698;2024-03-23T04:42:15;18.03;;;6.63;;
12271;SDS011;6198;51.446;6.698;2024-03-23T04:44:41;21.50;;;6.73;;
12271;SDS011;6198;51.446;6.698;2024-03-23T04:47:07;18.43;;;5.80;;
12271;SDS011;6198;51.446;6.698;2024-03-23T04:49:33;15.80;;;6.23;;
12271;SDS011;6198;51.446;6.698;2024-03-23T04:52:01;13.33;;;6.20;;
12271;SDS011;6198;51.446;6.698;2024-03-23T04:54:27;23.17;;;6.27;;
12271;SDS011;6198;51.446;6.698;2024-03-23T04:56:53;15.00;;;6.17;;
12271;SDS011;6198;51.446;6.698;2024-03-23T04:59:19;19.07;;;6.40;;
12271;SDS011;6198;51.446;6.698;2024-03-23T05:01:45;17.83;;;6.23;;
12271;SDS011;6198;51.446;6.698;2024-03-23T05:04:11;19.07;;;6.37;;
12271;SDS011;6198;51.446;6.698;2024-03-23T05:06:37;17.40;;;6.57;;
12271;SDS011;6198;51.446;6.698;2024-03-23T05:09:03;19.20;;;6.00;;
12271;SDS011;6198;51.446;6.698;2024-03-23T05:11:35;16.43;;;5.97;;
12271;SDS011;6198;51.446;6.698;2024-03-23T05:14:01;17.73;;;6.70;;
12271;SDS011;6198;51.446;6.698;2024-03-23T05:16:28;25.27;;;6.43;;
12271;SDS011;6198;51.446;6.698;2024-03-23T05:18:54;21.73;;;8.00;;
12271;SDS011;6198;51.446;6.698;2024-03-23T05:21:20;13.63;;;6.20;;
12271;SDS011;6198;51.446;6.698;2024-03-23T05:23:46;16.83;;;6.60;;
12271;SDS011;6198;51.446;6.698;2024-03-23T05:26:12;18.53;;;6.97;;
12271;SDS011;6198;51.446;6.698;2024-03-23T05:28:38;24.70;;;7.30;;
12271;SDS011;6198;51.446;6.698;2024-03-23T05:31:04;14.33;;;7.40;;
12271;SDS011;6198;51.446;6.698;2024-03-23T05:33:30;22.20;;;7.20;;
12271;SDS011;6198;51.446;6.698;2024-03-23T05:35:57;19.13;;;7.53;;
12271;SDS011;6198;51.446;6.698;2024-03-23T05:38:23;18.43;;;7.80;;
12271;SDS011;6198;51.446;6.698;2024-03-23T05:40:55;24.87;;;7.50;;
12271;SDS011;6198;51.446;6.698;2024-03-23T05:43:22;17.67;;;7.57;;
12271;SDS011;6198;51.446;6.698;2024-03-23T05:45:57;17.73;;;8.20;;
12271;SDS011;6198;51.446;6.698;2024-03-23T05:48:23;14.97;;;7.67;;
12271;SDS011;6198;51.446;6.698;2024-03-23T05:50:50;24.20;;;8.07;;
12271;SDS011;6198;51.446;6.698;2024-03-23T05:53:16;20.90;;;7.83;;
12271;SDS011;6198;51.446;6.698;2024-03-23T05:55:42;18.77;;;7.90;;
12271;SDS011;6198;51.446;6.698;2024-03-23T05:58:08;20.23;;;7.87;;
12271;SDS011;6198;51.446;6.698;2024-03-23T06:00:34;18.43;;;7.53;;
12271;SDS011;6198;51.446;6.698;2024-03-23T06:03:00;19.20;;;7.63;;
12271;SDS011;6198;51.446;6.698;2024-03-23T06:05:26;20.07;;;8.57;;
12271;SDS011;6198;51.446;6.698;2024-03-23T06:07:52;24.07;;;7.93;;
12271;SDS011;6198;51.446;6.698;2024-03-23T06:10:18;14.03;;;7.80;;
12271;SDS011;6198;51.446;6.698;2024-03-23T06:12:47;19.10;;;8.40;;
12271;SDS011;6198;51.446;6.698;2024-03-23T06:15:15;17.90;;;8.90;;
12271;SDS011;6198;51.446;6.698;2024-03-23T06:17:41;21.43;;;8.37;;
12271;SDS011;6198;51.446;6.698;2024-03-23T06:20:07;25.63;;;9.07;;
12271;SDS011;6198;51.446;6.698;2024-03-23T06:22:33;19.67;;;8.63;;
12271;SDS011;6198;51.446;6.698;2024-03-23T06:24:59;30.03;;;8.70;;
12271;SDS011;6198;51.446;6.698;2024-03-23T06:27:25;25.60;;;9.13;;
12271;SDS011;6198;51.446;6.698;2024-03-23T06:29:51;25.37;;;9.00;;
12271;SDS011;6198;51.446;6.698;2024-03-23T06:32:17;24.77;;;9.40;;
12271;SDS011;6198;51.446;6.698;2024-03-23T06:34:43;23.50;;;9.80;;
12271;SDS011;6198;51.446;6.698;2024-03-23T06:37:09;25.77;;;10.03;;
12271;SDS011;6198;51.446;6.698;2024-03-23T06:39:36;27.67;;;10.30;;
12271;SDS011;6198;51.446;6.698;2024-03-23T06:42:02;22.30;;;10.50;;
12271;SDS011;6198;51.446;6.698;2024-03-23T06:44:28;19.70;;;9.47;;
12271;SDS011;6198;51.446;6.698;2024-03-23T06:46:55;18.67;;;9.90;;
12271;SDS011;6198;51.446;6.698;2024-03-23T06:49:21;24.93;;;10.77;;
12271;SDS011;6198;51.446;6.698;2024-03-23T06:51:47;22.00;;;9.90;;
12271;SDS011;6198;51.446;6.698;2024-03-23T06:54:12;22.73;;;10.40;;
12271;SDS011;6198;51.446;6.698;2024-03-23T06:56:38;23.27;;;9.90;;
12271;SDS011;6198;51.446;6.698;2024-03-23T06:59:05;23.20;;;9.33;;
12271;SDS011;6198;51.446;6.698;2024-03-23T07:01:31;22.23;;;9.80;;
12271;SDS011;6198;51.446;6.698;2024-03-23T07:03:56;20.20;;;9.60;;
12271;SDS011;6198;51.446;6.698;2024-03-23T07:06:22;25.77;;;9.40;;
12271;SDS011;6198;51.446;6.698;2024-03-23T07:08:48;23.83;;;9.40;;
12271;SDS011;6198;51.446;6.698;2024-03-23T07:11:21;20.93;;;9.47;;
12271;SDS011;6198;51.446;6.698;2024-03-23T07:13:49;17.80;;;8.33;;
12271;SDS011;6198;51.446;6.698;2024-03-23T07:16:15;23.93;;;8.77;;
12271;SDS011;6198;51.446;6.698;2024-03-23T07:18:41;23.47;;;9.10;;
12271;SDS011;6198;51.446;6.698;2024-03-23T07:21:07;18.30;;;8.10;;
12271;SDS011;6198;51.446;6.698;2024-03-23T07:23:33;12.80;;;6.90;;
12271;SDS011;6198;51.446;6.698;2024-03-23T07:26:03;21.97;;;8.27;;
12271;SDS011;6198;51.446;6.698;2024-03-23T07:28:30;16.13;;;7.83;;
12271;SDS011;6198;51.446;6.698;2024-03-23T07:31:06;19.53;;;7.53;;
12271;SDS011;6198;51.446;6.698;2024-03-23T07:33:33;24.57;;;7.03;;
12271;SDS011;6198;51.446;6.698;2024-03-23T07:35:59;16.90;;;7.70;;
12271;SDS011;6198;51.446;6.698;2024-03-23T07:38:26;15.87;;;6.83;;
12271;SDS011;6198;51.446;6.698;2024-03-23T07:41:01;11.27;;;6.43;;
12271;SDS011;6198;51.446;6.698;2024-03-23T07:43:27;15.60;;;6.83;;
12271;SDS011;6198;51.446;6.698;2024-03-23T07:45:54;14.67;;;7.63;;
12271;SDS011;6198;51.446;6.698;2024-03-23T07:48:23;14.33;;;6.30;;
12271;SDS011;6198;51.446;6.698;2024-03-23T07:53:24;14.73;;;5.90;;
12271;SDS011;6198;51.446;6.698;2024-03-23T07:56:00;17.67;;;6.07;;
12271;SDS011;6198;51.446;6.698;2024-03-23T07:58:26;11.60;;;5.53;;
12271;SDS011;6198;51.446;6.698;2024-03-23T08:00:52;17.07;;;5.63;;
12271;SDS011;6198;51.446;6.698;2024-03-23T08:03:19;12.33;;;5.70;;
12271;SDS011;6198;51.446;6.698;2024-03-23T08:05:45;15.17;;;5.00;;
12271;SDS011;6198;51.446;6.698;2024-03-23T08:08:11;14.57;;;5.30;;
12271;SDS011;6198;51.446;6.698;2024-03-23T08:10:37;10.10;;;4.97;;
12271;SDS011;6198;51.446;6.698;2024-03-23T08:13:03;19.00;;;6.60;;
12271;SDS011;6198;51.446;6.698;2024-03-23T08:15:30;12.40;;;5.73;;
12271;SDS011;6198;51.446;6.698;2024-03-23T08:17:58;8.83;;;4.63;;
12271;SDS011;6198;51.446;6.698;2024-03-23T08:20:24;11.47;;;4.87;;
12271;SDS011;6198;51.446;6.698;2024-03-23T08:22:50;12.83;;;4.83;;
12271;SDS011;6198;51.446;6.698;2024-03-23T08:25:16;15.30;;;5.07;;
12271;SDS011;6198;51.446;6.698;2024-03-23T08:27:43;11.20;;;5.03;;
12271;SDS011;6198;51.446;6.698;2024-03-23T08:30:09;14.57;;;4.97;;
12271;SDS011;6198;51.446;6.698;2024-03-23T08:32:36;12.37;;;4.43;;
12271;SDS011;6198;51.446;6.698;2024-03-23T08:35:02;8.20;;;4.47;;
12271;SDS011;6198;51.446;6.698;2024-03-23T08:37:28;7.03;;;3.43;;
12271;SDS011;6198;51.446;6.698;2024-03-23T08:39:54;6.83;;;3.80;;
12271;SDS011;6198;51.446;6.698;2024-03-23T08:42:20;10.53;;;3.10;;
12271;SDS011;6198;51.446;6.698;2024-03-23T08:44:46;6.70;;;2.80;;
12271;SDS011;6198;51.446;6.698;2024-03-23T08:47:14;7.43;;;2.40;;
12271;SDS011;6198;51.446;6.698;2024-03-23T08:49:40;4.80;;;2.30;;
12271;SDS011;6198;51.446;6.698;2024-03-23T08:52:07;4.87;;;2.30;;
12271;SDS011;6198;51.446;6.698;2024-03-23T08:54:32;6.50;;;2.63;;
12271;SDS011;6198;51.446;6.698;2024-03-23T08:56:59;6.60;;;2.63;;
12271;SDS011;6198;51.446;6.698;2024-03-23T08:59:25;5.27;;;2.67;;
12271;SDS011;6198;51.446;6.698;2024-03-23T09:01:51;5.73;;;3.20;;
12271;SDS011;6198;51.446;6.698;2024-03-23T09:04:17;11.57;;;3.73;;
12271;SDS011;6198;51.446;6.698;2024-03-23T09:06:44;6.63;;;4.10;;
12271;SDS011;6198;51.446;6.698;2024-03-23T09:09:10;8.73;;;4.37;;
12271;SDS011;6198;51.446;6.698;2024-03-23T09:11:37;12.87;;;4.83;;
12271;SDS011;6198;51.446;6.698;2024-03-23T09:14:03;10.40;;;5.00;;
12271;SDS011;6198;51.446;6.698;2024-03-23T09:16:29;9.73;;;4.73;;
12271;SDS011;6198;51.446;6.698;2024-03-23T09:18:55;13.47;;;5.17;;
12271;SDS011;6198;51.446;6.698;2024-03-23T09:21:21;9.67;;;4.13;;
12271;SDS011;6198;51.446;6.698;2024-03-23T09:23:48;9.97;;;4.13;;
12271;SDS011;6198;51.446;6.698;2024-03-23T09:26:14;11.47;;;4.53;;
12271;SDS011;6198;51.446;6.698;2024-03-23T09:28:41;8.07;;;4.50;;
12271;SDS011;6198;51.446;6.698;2024-03-23T09:31:08;11.20;;;4.23;;
12271;SDS011;6198;51.446;6.698;2024-03-23T09:33:39;7.57;;;3.50;;
12271;SDS011;6198;51.446;6.698;2024-03-23T09:36:05;12.57;;;3.93;;
12271;SDS011;6198;51.446;6.698;2024-03-23T09:38:31;9.03;;;3.67;;
12271;SDS011;6198;51.446;6.698;2024-03-23T09:40:58;10.63;;;3.77;;
12271;SDS011;6198;51.446;6.698;2024-03-23T09:43:25;9.20;;;2.97;;
12271;SDS011;6198;51.446;6.698;2024-03-23T09:45:51;11.07;;;4.07;;
12271;SDS011;6198;51.446;6.698;2024-03-23T09:48:18;7.90;;;2.97;;
12271;SDS011;6198;51.446;6.698;2024-03-23T09:50:44;9.60;;;2.60;;
12271;SDS011;6198;51.446;6.698;2024-03-23T09:53:11;7.23;;;2.63;;
12271;SDS011;6198;51.446;6.698;2024-03-23T09:55:38;6.37;;;2.07;;
12271;SDS011;6198;51.446;6.698;2024-03-23T09:58:05;7.50;;;2.33;;
12271;SDS011;6198;51.446;6.698;2024-03-23T10:00:32;8.53;;;2.47;;
12271;SDS011;6198;51.446;6.698;2024-03-23T10:02:59;8.93;;;2.67;;
12271;SDS011;6198;51.446;6.698;2024-03-23T10:05:29;7.97;;;2.37;;
12271;SDS011;6198;51.446;6.698;2024-03-23T10:10:39;6.33;;;2.63;;
12271;SDS011;6198;51.446;6.698;2024-03-23T10:13:06;5.90;;;2.43;;
12271;SDS011;6198;51.446;6.698;2024-03-23T10:15:35;6.43;;;2.57;;
12271;SDS011;6198;51.446;6.698;2024-03-23T10:18:19;7.93;;;2.57;;
12271;SDS011;6198;51.446;6.698;2024-03-23T10:21:31;7.30;;;2.33;;
12271;SDS011;6198;51.446;6.698;2024-03-23T10:23:39;5.77;;;2.50;;
12271;SDS011;6198;51.446;6.698;2024-03-23T10:31:25;7.87;;;2.53;;
12271;SDS011;6198;51.446;6.698;2024-03-23T10:33:52;5.37;;;2.00;;
12271;SDS011;6198;51.446;6.698;2024-03-23T10:36:20;5.78;;;1.90;;
12271;SDS011;6198;51.446;6.698;2024-03-23T10:38:46;4.95;;;1.50;;
12271;SDS011;6198;51.446;6.698;2024-03-23T10:41:12;2.30;;;1.42;;
12271;SDS011;6198;51.446;6.698;2024-03-23T10:43:38;4.63;;;1.70;;
12271;SDS011;6198;51.446;6.698;2024-03-23T10:46:05;3.03;;;1.48;;
12271;SDS011;6198;51.446;6.698;2024-03-23T10:48:32;3.58;;;1.60;;
12271;SDS011;6198;51.446;6.698;2024-03-23T10:50:58;4.00;;;1.37;;
12271;SDS011;6198;51.446;6.698;2024-03-23T10:53:25;4.10;;;1.42;;
12271;SDS011;6198;51.446;6.698;2024-03-23T10:55:52;2.60;;;1.40;;
12271;SDS011;6198;51.446;6.698;2024-03-23T10:58:23;3.20;;;1.52;;
12271;SDS011;6198;51.446;6.698;2024-03-23T11:00:50;4.65;;;1.92;;
12271;SDS011;6198;51.446;6.698;2024-03-23T11:06:02;2.92;;;2.10;;
12271;SDS011;6198;51.446;6.698;2024-03-23T11:08:31;2.33;;;1.70;;
12271;SDS011;6198;51.446;6.698;2024-03-23T11:11:11;6.57;;;1.80;;
12271;SDS011;6198;51.446;6.698;2024-03-23T11:13:37;7.47;;;2.10;;
12271;SDS011;6198;51.446;6.698;2024-03-23T11:16:16;5.22;;;1.92;;
12271;SDS011;6198;51.446;6.698;2024-03-23T11:18:43;5.97;;;2.57;;
12271;SDS011;6198;51.446;6.698;2024-03-23T11:21:10;6.38;;;2.60;;
12271;SDS011;6198;51.446;6.698;2024-03-23T11:23:36;7.25;;;2.60;;
12271;SDS011;6198;51.446;6.698;2024-03-23T11:26:02;5.75;;;2.70;;
12271;SDS011;6198;51.446;6.698;2024-03-23T11:28:28;5.85;;;2.97;;
12271;SDS011;6198;51.446;6.698;2024-03-23T11:30:54;6.20;;;2.83;;
12271;SDS011;6198;51.446;6.698;2024-03-23T11:33:20;11.10;;;3.22;;
12271;SDS011;6198;51.446;6.698;2024-03-23T11:35:46;5.83;;;2.57;;
12271;SDS011;6198;51.446;6.698;2024-03-23T11:38:13;6.47;;;3.33;;
12271;SDS011;6198;51.446;6.698;2024-03-23T11:40:40;6.38;;;2.25;;
12271;SDS011;6198;51.446;6.698;2024-03-23T11:43:06;4.20;;;2.00;;
12271;SDS011;6198;51.446;6.698;2024-03-23T11:45:43;4.40;;;1.95;;
12271;SDS011;6198;51.446;6.698;2024-03-23T11:50:39;4.75;;;1.90;;
12271;SDS011;6198;51.446;6.698;2024-03-23T11:53:19;4.43;;;1.70;;
12271;SDS011;6198;51.446;6.698;2024-03-23T11:55:46;9.38;;;2.42;;
12271;SDS011;6198;51.446;6.698;2024-03-23T11:58:12;6.13;;;2.00;;
12271;SDS011;6198;51.446;6.698;2024-03-23T12:00:38;6.65;;;1.92;;
12271;SDS011;6198;51.446;6.698;2024-03-23T12:03:04;7.53;;;2.20;;
12271;SDS011;6198;51.446;6.698;2024-03-23T12:05:31;7.35;;;2.05;;
12271;SDS011;6198;51.446;6.698;2024-03-23T12:13:32;3.03;;;1.73;;
12271;SDS011;6198;51.446;6.698;2024-03-23T12:16:13;6.43;;;2.00;;
12271;SDS011;6198;51.446;6.698;2024-03-23T12:18:43;3.97;;;1.70;;
12271;SDS011;6198;51.446;6.698;2024-03-23T12:21:10;5.40;;;1.90;;
12271;SDS011;6198;51.446;6.698;2024-03-23T12:23:38;4.07;;;2.00;;
12271;SDS011;6198;51.446;6.698;2024-03-23T12:26:04;4.97;;;1.70;;
12271;SDS011;6198;51.446;6.698;2024-03-23T12:28:30;6.53;;;2.00;;
12271;SDS011;6198;51.446;6.698;2024-03-23T12:30:56;5.00;;;2.10;;
12271;SDS011;6198;51.446;6.698;2024-03-23T12:33:22;7.27;;;2.20;;
12271;SDS011;6198;51.446;6.698;2024-03-23T12:35:48;6.63;;;2.13;;
12271;SDS011;6198;51.446;6.698;2024-03-23T12:38:14;4.03;;;1.67;;
12271;SDS011;6198;51.446;6.698;2024-03-23T12:40:40;3.83;;;1.50;;
12271;SDS011;6198;51.446;6.698;2024-03-23T12:43:07;2.80;;;1.30;;
12271;SDS011;6198;51.446;6.698;2024-03-23T12:45:33;2.20;;;1.50;;
12271;SDS011;6198;51.446;6.698;2024-03-23T12:47:59;4.70;;;1.90;;
12271;SDS011;6198;51.446;6.698;2024-03-23T12:50:25;6.17;;;2.10;;
12271;SDS011;6198;51.446;6.698;2024-03-23T12:52:51;4.80;;;1.30;;
12271;SDS011;6198;51.446;6.698;2024-03-23T12:55:17;2.23;;;1.30;;
12271;SDS011;6198;51.446;6.698;2024-03-23T12:57:43;4.43;;;1.50;;
12271;SDS011;6198;51.446;6.698;2024-03-23T13:00:09;2.77;;;1.47;;
12271;SDS011;6198;51.446;6.698;2024-03-23T13:02:36;3.60;;;1.50;;
12271;SDS011;6198;51.446;6.698;2024-03-23T13:05:03;4.27;;;1.90;;
12271;SDS011;6198;51.446;6.698;2024-03-23T13:07:29;4.50;;;1.87;;
12271;SDS011;6198;51.446;6.698;2024-03-23T13:09:55;4.73;;;1.80;;
12271;SDS011;6198;51.446;6.698;2024-03-23T13:12:22;4.80;;;2.20;;
12271;SDS011;6198;51.446;6.698;2024-03-23T13:14:48;5.22;;;2.33;;
12271;SDS011;6198;51.446;6.698;2024-03-23T13:17:14;4.55;;;2.10;;
12271;SDS011;6198;51.446;6.698;2024-03-23T13:19:40;3.60;;;1.80;;
12271;SDS011;6198;51.446;6.698;2024-03-23T13:22:06;4.77;;;1.97;;
12271;SDS011;6198;51.446;6.698;2024-03-23T13:24:33;5.67;;;1.63;;
12271;SDS011;6198;51.446;6.698;2024-03-23T13:26:59;4.37;;;1.40;;
12271;SDS011;6198;51.446;6.698;2024-03-23T13:29:25;4.07;;;1.43;;
12271;SDS011;6198;51.446;6.698;2024-03-23T13:31:51;1.83;;;1.40;;
12271;SDS011;6198;51.446;6.698;2024-03-23T13:34:18;3.20;;;1.33;;
12271;SDS011;6198;51.446;6.698;2024-03-23T13:36:45;2.90;;;1.80;;
12271;SDS011;6198;51.446;6.698;2024-03-23T13:39:11;2.47;;;1.30;;
12271;SDS011;6198;51.446;6.698;2024-03-23T13:41:41;7.77;;;5.40;;
12271;SDS011;6198;51.446;6.698;2024-03-23T13:44:07;3.50;;;2.40;;
12271;SDS011;6198;51.446;6.698;2024-03-23T13:46:35;4.20;;;2.90;;
12271;SDS011;6198;51.446;6.698;2024-03-23T13:49:01;4.27;;;1.73;;
12271;SDS011;6198;51.446;6.698;2024-03-23T13:51:27;5.03;;;1.60;;
12271;SDS011;6198;51.446;6.698;2024-03-23T13:53:53;2.23;;;1.60;;
12271;SDS011;6198;51.446;6.698;2024-03-23T13:56:20;4.27;;;1.80;;
12271;SDS011;6198;51.446;6.698;2024-03-23T13:58:46;2.20;;;1.60;;
12271;SDS011;6198;51.446;6.698;2024-03-23T14:01:13;1.57;;;1.40;;
12271;SDS011;6198;51.446;6.698;2024-03-23T14:03:39;3.23;;;1.50;;
12271;SDS011;6198;51.446;6.698;2024-03-23T14:06:05;3.83;;;1.53;;
12271;SDS011;6198;51.446;6.698;2024-03-23T14:08:32;6.83;;;2.13;;
12271;SDS011;6198;51.446;6.698;2024-03-23T14:11:00;2.67;;;1.10;;
12271;SDS011;6198;51.446;6.698;2024-03-23T14:13:27;4.10;;;1.57;;
12271;SDS011;6198;51.446;6.698;2024-03-23T14:15:53;3.23;;;1.63;;
12271;SDS011;6198;51.446;6.698;2024-03-23T14:18:19;1.70;;;1.20;;
12271;SDS011;6198;51.446;6.698;2024-03-23T14:20:47;1.57;;;1.10;;
12271;SDS011;6198;51.446;6.698;2024-03-23T14:23:13;3.93;;;1.40;;
12271;SDS011;6198;51.446;6.698;2024-03-23T14:25:39;5.80;;;1.70;;
12271;SDS011;6198;51.446;6.698;2024-03-23T14:28:05;2.83;;;1.47;;
12271;SDS011;6198;51.446;6.698;2024-03-23T14:30:33;2.30;;;1.20;;
12271;SDS011;6198;51.446;6.698;2024-03-23T14:32:59;4.70;;;1.60;;
12271;SDS011;6198;51.446;6.698;2024-03-23T14:35:25;3.77;;;1.83;;
12271;SDS011;6198;51.446;6.698;2024-03-23T14:37:51;4.00;;;1.40;;
12271;SDS011;6198;51.446;6.698;2024-03-23T14:40:18;4.00;;;1.07;;
12271;SDS011;6198;51.446;6.698;2024-03-23T14:42:44;4.07;;;1.50;;
12271;SDS011;6198;51.446;6.698;2024-03-23T14:45:10;4.07;;;1.20;;
12271;SDS011;6198;51.446;6.698;2024-03-23T14:47:36;3.40;;;1.40;;
12271;SDS011;6198;51.446;6.698;2024-03-23T14:50:02;2.27;;;1.50;;
12271;SDS011;6198;51.446;6.698;2024-03-23T14:52:28;5.27;;;1.90;;
12271;SDS011;6198;51.446;6.698;2024-03-23T14:54:55;4.27;;;2.50;;
12271;SDS011;6198;51.446;6.698;2024-03-23T14:57:21;4.60;;;1.73;;
12271;SDS011;6198;51.446;6.698;2024-03-23T14:59:47;2.87;;;1.30;;
12271;SDS011;6198;51.446;6.698;2024-03-23T15:02:13;5.00;;;2.03;;
12271;SDS011;6198;51.446;6.698;2024-03-23T15:04:39;2.00;;;1.43;;
12271;SDS011;6198;51.446;6.698;2024-03-23T15:07:08;3.40;;;2.07;;
12271;SDS011;6198;51.446;6.698;2024-03-23T15:09:34;7.23;;;1.90;;
12271;SDS011;6198;51.446;6.698;2024-03-23T15:12:00;4.90;;;1.90;;
12271;SDS011;6198;51.446;6.698;2024-03-23T15:14:26;3.00;;;1.97;;
12271;SDS011;6198;51.446;6.698;2024-03-23T15:16:52;4.63;;;1.57;;
12271;SDS011;6198;51.446;6.698;2024-03-23T15:19:19;3.03;;;1.40;;
12271;SDS011;6198;51.446;6.698;2024-03-23T15:21:45;2.20;;;1.50;;
12271;SDS011;6198;51.446;6.698;2024-03-23T15:24:11;4.97;;;1.67;;
12271;SDS011;6198;51.446;6.698;2024-03-23T15:26:37;3.97;;;1.57;;
12271;SDS011;6198;51.446;6.698;2024-03-23T15:29:03;6.37;;;1.60;;
12271;SDS011;6198;51.446;6.698;2024-03-23T15:31:37;3.93;;;1.60;;
12271;SDS011;6198;51.446;6.698;2024-03-23T15:34:03;3.90;;;1.60;;
12271;SDS011;6198;51.446;6.698;2024-03-23T15:36:29;4.57;;;1.80;;
12271;SDS011;6198;51.446;6.698;2024-03-23T15:38:56;5.83;;;2.07;;
12271;SDS011;6198;51.446;6.698;2024-03-23T15:41:22;16.47;;;11.20;;
12271;SDS011;6198;51.446;6.698;2024-03-23T15:43:49;10.90;;;7.30;;
12271;SDS011;6198;51.446;6.698;2024-03-23T15:46:15;91.80;;;44.67;;
12271;SDS011;6198;51.446;6.698;2024-03-23T15:48:42;77.30;;;38.77;;
12271;SDS011;6198;51.446;6.698;2024-03-23T15:51:11;14.40;;;9.27;;
12271;SDS011;6198;51.446;6.698;2024-03-23T15:53:37;19.43;;;12.63;;
12271;SDS011;6198;51.446;6.698;2024-03-23T15:56:03;14.97;;;9.67;;
12271;SDS011;6198;51.446;6.698;2024-03-23T15:58:30;3.90;;;2.00;;
12271;SDS011;6198;51.446;6.698;2024-03-23T16:01:03;4.83;;;2.60;;
12271;SDS011;6198;51.446;6.698;2024-03-23T16:03:29;19.03;;;12.63;;